Time;durP1;ratioP1;P1;durP2;ratioP2;P2;SDS_P1;SDS_P2;PMS_P1;PMS_P2;Temp;Humidity;BMP_temperature;BMP_pressure;BME280_temperature;BME280_humidity;BME280_pressure;Samples;Min_cycle;Max_cycle;Signal;HPM_P1;HPM_P2
2023/05/27 00:01:50;0.00;0.00;0.62;0.00;0.00;0.62;4.53;2.43;;;26.80;20.70;;;;;;2254762;61;20373;-57
2023/05/27 00:04:34;0.00;0.00;0.62;0.00;0.00;0.62;3.93;2.60;;;26.80;21.20;;;;;;2255435;61;20366;-60
2023/05/27 00:07:19;0.00;0.00;0.62;0.00;0.00;0.62;4.60;2.80;;;26.80;20.70;;;;;;2255671;61;20790;-62
2023/05/27 00:10:06;0.00;0.00;0.62;0.00;0.00;0.62;6.07;3.13;;;26.80;20.80;;;;;;2255779;61;20393;-59
2023/05/27 00:12:52;0.00;0.00;0.62;0.00;0.00;0.62;4.63;2.50;;;26.80;20.70;;;;;;2255215;61;20369;-63
2023/05/27 00:15:41;0.00;0.00;0.62;0.00;0.00;0.62;3.30;2.47;;;26.80;20.80;;;;;;2252575;61;20468;-61
2023/05/27 00:18:25;0.00;0.00;0.62;0.00;0.00;0.62;4.67;3.07;;;26.80;20.80;;;;;;2252537;61;20895;-60
2023/05/27 00:21:10;0.00;0.00;0.62;0.00;0.00;0.62;4.17;2.33;;;26.80;20.80;;;;;;2251698;61;20958;-62
2023/05/27 00:23:57;0.00;0.00;0.62;0.00;0.00;0.62;4.60;3.00;;;26.80;20.80;;;;;;2255817;61;20770;-60
2023/05/27 00:26:42;0.00;0.00;0.62;0.00;0.00;0.62;3.30;2.50;;;26.80;20.80;;;;;;2252859;61;20385;-62
2023/05/27 00:29:28;0.00;0.00;0.62;0.00;0.00;0.62;4.33;2.70;;;26.80;20.80;;;;;;2252820;61;20413;-59
2023/05/27 00:32:13;0.00;0.00;0.62;0.00;0.00;0.62;5.03;2.60;;;26.80;20.80;;;;;;2256932;61;20370;-63
2023/05/27 00:34:58;0.00;0.00;0.62;0.00;0.00;0.62;3.60;2.10;;;26.70;20.70;;;;;;2255273;61;20394;-61
2023/05/27 00:37:43;0.00;0.00;0.62;0.00;0.00;0.62;4.70;3.03;;;26.70;20.80;;;;;;2253656;61;20373;-58
2023/05/27 00:40:30;0.00;0.00;0.62;0.00;0.00;0.62;7.13;2.87;;;26.70;20.80;;;;;;2256344;61;20366;-62
2023/05/27 00:43:15;0.00;0.00;0.62;0.00;0.00;0.62;5.40;3.27;;;26.70;21.30;;;;;;2255631;61;20393;-64
2023/05/27 00:46:02;0.00;0.00;0.62;0.00;0.00;0.62;4.27;2.60;;;26.70;20.80;;;;;;2256496;61;20381;-56
2023/05/27 00:48:47;0.00;0.00;0.62;0.00;0.00;0.62;4.90;2.77;;;26.70;20.80;;;;;;2252782;61;20451;-63
2023/05/27 00:51:32;0.00;0.00;0.62;0.00;0.00;0.62;4.60;2.20;;;26.70;20.80;;;;;;2250549;61;20413;-61
2023/05/27 00:54:18;0.00;0.00;0.62;0.00;0.00;0.62;3.90;2.77;;;26.70;20.80;;;;;;2253299;61;20501;-60
2023/05/27 00:57:03;0.00;0.00;0.62;0.00;0.00;0.62;3.43;2.40;;;26.70;20.80;;;;;;2255508;61;20386;-63
2023/05/27 00:59:48;0.00;0.00;0.62;0.00;0.00;0.62;2.93;2.53;;;26.70;20.80;;;;;;2256341;61;20454;-59
2023/05/27 01:02:34;0.00;0.00;0.62;0.00;0.00;0.62;3.70;2.57;;;26.70;20.80;;;;;;2252819;61;20374;-60
2023/05/27 01:05:21;0.00;0.00;0.62;0.00;0.00;0.62;5.27;3.20;;;26.70;20.80;;;;;;2251805;61;20799;-60
2023/05/27 01:08:20;0.00;0.00;0.62;0.00;0.00;0.62;5.30;3.00;;;26.70;20.80;;;;;;2249493;61;20918;-58
2023/05/27 01:11:10;0.00;0.00;0.62;0.00;0.00;0.62;4.77;2.93;;;26.70;20.80;;;;;;2248642;61;20366;-62
2023/05/27 01:14:00;0.00;0.00;0.62;0.00;0.00;0.62;4.20;2.43;;;26.60;20.80;;;;;;2253076;61;20675;-63
2023/05/27 01:16:46;0.00;0.00;0.62;0.00;0.00;0.62;5.80;2.90;;;26.70;20.90;;;;;;2253494;61;20942;-61
2023/05/27 01:19:34;0.00;0.00;0.62;0.00;0.00;0.62;5.60;2.43;;;26.70;20.90;;;;;;2255445;61;20369;-61
2023/05/27 01:22:21;0.00;0.00;0.62;0.00;0.00;0.62;2.70;2.00;;;26.60;20.80;;;;;;2253011;61;20890;-63
2023/05/27 01:25:09;0.00;0.00;0.62;0.00;0.00;0.62;4.27;2.60;;;26.60;20.80;;;;;;2251857;61;20362;-62
2023/05/27 01:27:56;0.00;0.00;0.62;0.00;0.00;0.62;4.43;2.80;;;26.60;20.80;;;;;;2252078;61;20375;-63
2023/05/27 01:30:40;0.00;0.00;0.62;0.00;0.00;0.62;3.80;2.10;;;26.60;20.80;;;;;;2251657;61;20402;-60
2023/05/27 01:33:30;0.00;0.00;0.62;0.00;0.00;0.62;7.30;2.80;;;26.60;20.90;;;;;;2251981;61;20391;-60
2023/05/27 01:36:20;0.00;0.00;0.62;0.00;0.00;0.62;5.10;2.90;;;26.60;20.80;;;;;;2252092;61;20406;-58
2023/05/27 01:39:11;0.00;0.00;0.62;0.00;0.00;0.62;2.93;2.30;;;26.60;20.90;;;;;;2248948;61;20351;-61
2023/05/27 01:42:01;0.00;0.00;0.62;0.00;0.00;0.62;3.93;2.50;;;26.60;20.90;;;;;;2248080;61;20366;-58
2023/05/27 01:44:49;0.00;0.00;0.62;0.00;0.00;0.62;3.10;2.23;;;26.60;20.90;;;;;;2249266;61;20394;-63
2023/05/27 01:47:34;0.00;0.00;0.62;0.00;0.00;0.62;5.60;2.40;;;26.60;20.90;;;;;;2252387;61;20386;-62
2023/05/27 01:50:19;0.00;0.00;0.62;0.00;0.00;0.62;4.67;2.83;;;26.60;20.90;;;;;;2251573;61;20375;-60
2023/05/27 01:53:04;0.00;0.00;0.62;0.00;0.00;0.62;4.50;2.33;;;26.60;20.90;;;;;;2249270;61;20367;-61
2023/05/27 01:55:49;0.00;0.00;0.62;0.00;0.00;0.62;3.80;2.43;;;26.60;20.90;;;;;;2248552;61;20402;-62
2023/05/27 01:58:35;0.00;0.00;0.62;0.00;0.00;0.62;4.50;2.60;;;26.60;20.90;;;;;;2249029;61;20393;-62
2023/05/27 02:01:21;0.00;0.00;0.62;0.00;0.00;0.62;3.53;2.10;;;26.60;20.90;;;;;;2251103;61;20981;-60
2023/05/27 02:04:06;0.00;0.00;0.62;0.00;0.00;0.62;5.30;2.77;;;26.50;20.80;;;;;;2251727;61;20361;-64
2023/05/27 02:06:51;0.00;0.00;0.62;0.00;0.00;0.62;4.17;2.60;;;26.50;20.80;;;;;;2253678;61;20390;-64
2023/05/27 02:09:36;0.00;0.00;0.62;0.00;0.00;0.62;4.37;2.53;;;26.50;20.90;;;;;;2256544;61;20414;-64
2023/05/27 02:12:21;0.00;0.00;0.62;0.00;0.00;0.62;3.57;2.43;;;26.50;20.80;;;;;;2256266;61;20374;-65
2023/05/27 02:15:09;0.00;0.00;0.62;0.00;0.00;0.62;3.53;2.10;;;26.50;20.80;;;;;;2253624;61;20386;-63
2023/05/27 02:17:55;0.00;0.00;0.62;0.00;0.00;0.62;4.13;2.50;;;26.50;20.80;;;;;;2249096;61;20891;-65
2023/05/27 02:20:40;0.00;0.00;0.62;0.00;0.00;0.62;4.50;2.40;;;26.50;20.80;;;;;;2251667;61;20387;-65
2023/05/27 02:23:25;0.00;0.00;0.62;0.00;0.00;0.62;6.40;2.90;;;26.50;20.80;;;;;;2251939;61;20428;-65
2023/05/27 02:26:09;0.00;0.00;0.62;0.00;0.00;0.62;3.63;2.37;;;26.50;20.80;;;;;;2252107;61;20374;-64
2023/05/27 02:28:54;0.00;0.00;0.62;0.00;0.00;0.62;3.70;2.63;;;26.50;20.80;;;;;;2256584;61;20406;-65
2023/05/27 02:31:40;0.00;0.00;0.62;0.00;0.00;0.62;3.40;2.33;;;26.50;21.40;;;;;;2256723;61;20384;-63
2023/05/27 02:34:25;0.00;0.00;0.62;0.00;0.00;0.62;4.80;3.13;;;26.50;20.80;;;;;;2252553;61;20879;-65
2023/05/27 02:37:10;0.00;0.00;0.62;0.00;0.00;0.62;3.20;2.33;;;26.50;20.80;;;;;;2253740;61;20413;-64
2023/05/27 02:39:56;0.00;0.00;0.62;0.00;0.00;0.62;4.20;2.50;;;26.40;20.80;;;;;;2252916;61;20461;-64
2023/05/27 02:42:41;0.00;0.00;0.62;0.00;0.00;0.62;3.60;2.80;;;26.50;20.90;;;;;;2253287;61;20873;-64
2023/05/27 02:45:25;0.00;0.00;0.62;0.00;0.00;0.62;4.00;2.63;;;26.50;20.90;;;;;;2253624;61;20378;-64
2023/05/27 02:48:12;0.00;0.00;0.62;0.00;0.00;0.62;2.80;2.10;;;26.40;20.80;;;;;;2255557;61;20429;-64
2023/05/27 02:50:57;0.00;0.00;0.62;0.00;0.00;0.62;3.53;2.30;;;26.40;20.80;;;;;;2253701;61;20365;-67
2023/05/27 02:53:42;0.00;0.00;0.62;0.00;0.00;0.62;4.00;2.53;;;26.40;20.80;;;;;;2256910;61;20409;-64
2023/05/27 02:56:27;0.00;0.00;0.62;0.00;0.00;0.62;5.73;2.90;;;26.40;20.90;;;;;;2252725;61;20463;-63
2023/05/27 02:59:12;0.00;0.00;0.62;0.00;0.00;0.62;4.23;2.60;;;26.40;20.80;;;;;;2253311;61;20421;-65
2023/05/27 03:01:57;0.00;0.00;0.62;0.00;0.00;0.62;4.43;2.40;;;26.40;20.80;;;;;;2253530;61;20470;-68
2023/05/27 03:04:43;0.00;0.00;0.62;0.00;0.00;0.62;4.50;2.97;;;26.30;20.80;;;;;;2252209;61;20367;-64
2023/05/27 03:07:31;0.00;0.00;0.62;0.00;0.00;0.62;3.50;2.23;;;26.40;20.90;;;;;;2252981;61;20362;-64
2023/05/27 03:10:16;0.00;0.00;0.62;0.00;0.00;0.62;3.37;1.97;;;26.40;20.90;;;;;;2251210;61;20447;-63
2023/05/27 03:13:01;0.00;0.00;0.62;0.00;0.00;0.62;2.70;2.30;;;26.30;20.80;;;;;;2249719;61;20895;-64
2023/05/27 03:15:46;0.00;0.00;0.62;0.00;0.00;0.62;4.17;2.57;;;26.30;20.80;;;;;;2617770;46;20434;-64
2023/05/27 03:18:30;0.00;0.00;0.62;0.00;0.00;0.62;3.53;2.20;;;26.40;20.90;;;;;;2247879;61;20444;-64
2023/05/27 03:21:17;0.00;0.00;0.62;0.00;0.00;0.62;3.30;2.23;;;26.30;20.80;;;;;;2245501;61;20371;-64
2023/05/27 03:24:04;0.00;0.00;0.62;0.00;0.00;0.62;3.90;2.50;;;26.30;20.80;;;;;;2254267;61;20404;-64
2023/05/27 03:26:49;0.00;0.00;0.62;0.00;0.00;0.62;3.63;2.53;;;26.30;20.80;;;;;;2252845;61;20428;-65
2023/05/27 03:29:34;0.00;0.00;0.62;0.00;0.00;0.62;3.50;2.37;;;26.30;20.80;;;;;;2253215;61;20405;-64
2023/05/27 03:32:20;0.00;0.00;0.62;0.00;0.00;0.62;3.67;2.77;;;26.30;20.80;;;;;;2252412;61;20369;-65
2023/05/27 03:35:08;0.00;0.00;0.62;0.00;0.00;0.62;3.43;2.27;;;26.30;20.80;;;;;;2253526;61;20377;-64
2023/05/27 03:37:54;0.00;0.00;0.62;0.00;0.00;0.62;3.83;2.40;;;26.30;20.80;;;;;;2253458;61;20358;-64
2023/05/27 03:40:39;0.00;0.00;0.62;0.00;0.00;0.62;3.80;2.20;;;26.30;20.80;;;;;;2255080;61;20420;-61
2023/05/27 03:43:27;0.00;0.00;0.62;0.00;0.00;0.62;3.70;2.30;;;26.30;20.90;;;;;;2253174;61;20413;-61
2023/05/27 03:46:11;0.00;0.00;0.62;0.00;0.00;0.62;3.40;2.30;;;26.30;20.90;;;;;;2252371;61;20394;-60
2023/05/27 03:48:56;0.00;0.00;0.62;0.00;0.00;0.62;4.60;2.80;;;26.30;20.90;;;;;;2256006;61;20371;-61
2023/05/27 03:51:40;0.00;0.00;0.62;0.00;0.00;0.62;4.80;2.27;;;26.20;20.80;;;;;;2254012;61;20516;-58
2023/05/27 03:54:27;0.00;0.00;0.62;0.00;0.00;0.62;3.80;2.10;;;26.20;20.80;;;;;;2252851;61;20966;-64
2023/05/27 03:57:11;0.00;0.00;0.62;0.00;0.00;0.62;3.23;2.00;;;26.30;20.90;;;;;;2253556;61;20394;-63
2023/05/27 03:59:57;0.00;0.00;0.62;0.00;0.00;0.62;6.33;3.20;;;26.20;20.80;;;;;;2256564;61;20527;-62
2023/05/27 04:02:42;0.00;0.00;0.62;0.00;0.00;0.62;3.17;2.43;;;26.20;20.90;;;;;;2248653;61;20386;-62
2023/05/27 04:05:27;0.00;0.00;0.62;0.00;0.00;0.62;3.00;2.10;;;26.20;20.90;;;;;;2249585;61;20379;-62
2023/05/27 04:08:13;0.00;0.00;0.62;0.00;0.00;0.62;4.67;3.10;;;26.20;20.90;;;;;;2249497;61;20951;-62
2023/05/27 04:11:01;0.00;0.00;0.62;0.00;0.00;0.62;4.13;2.67;;;26.20;20.90;;;;;;2248495;61;20366;-58
2023/05/27 04:13:46;0.00;0.00;0.62;0.00;0.00;0.62;4.20;2.47;;;26.20;20.90;;;;;;2250635;61;20377;-60
2023/05/27 04:16:33;0.00;0.00;0.62;0.00;0.00;0.62;6.60;2.33;;;26.20;20.90;;;;;;2256235;61;20409;-58
2023/05/27 04:19:18;0.00;0.00;0.62;0.00;0.00;0.62;3.27;2.50;;;26.20;20.90;;;;;;2253251;61;20381;-59
2023/05/27 04:22:03;0.00;0.00;0.62;0.00;0.00;0.62;4.93;2.30;;;26.20;20.90;;;;;;2253705;61;20400;-59
2023/05/27 04:24:51;0.00;0.00;0.62;0.00;0.00;0.62;3.70;2.17;;;26.20;20.90;;;;;;2559993;46;20398;-58
2023/05/27 04:27:38;0.00;0.00;0.62;0.00;0.00;0.62;4.10;2.80;;;26.20;20.90;;;;;;2245595;61;20418;-60
2023/05/27 04:30:23;0.00;0.00;0.62;0.00;0.00;0.62;4.20;2.10;;;26.20;20.90;;;;;;2244956;61;20387;-57
2023/05/27 04:33:11;0.00;0.00;0.62;0.00;0.00;0.62;3.60;2.20;;;26.20;20.90;;;;;;2244732;61;20424;-56
2023/05/27 04:35:55;0.00;0.00;0.62;0.00;0.00;0.62;4.17;2.83;;;26.20;21.00;;;;;;2245291;61;20835;-58
2023/05/27 04:38:45;0.00;0.00;0.62;0.00;0.00;0.62;2.73;2.03;;;26.20;21.00;;;;;;2244925;61;20419;-60
2023/05/27 04:41:32;0.00;0.00;0.62;0.00;0.00;0.62;3.90;2.13;;;26.20;21.10;;;;;;2245663;61;20899;-57
2023/05/27 04:44:28;0.00;0.00;0.62;0.00;0.00;0.62;2.90;2.10;;;26.10;20.90;;;;;;2245416;61;20422;-57
2023/05/27 04:47:15;0.00;0.00;0.62;0.00;0.00;0.62;4.80;2.50;;;26.20;21.00;;;;;;2244427;61;20772;-58
2023/05/27 04:50:00;0.00;0.00;0.62;0.00;0.00;0.62;2.90;2.13;;;26.20;21.00;;;;;;2248368;61;20415;-57
2023/05/27 04:52:45;0.00;0.00;0.62;0.00;0.00;0.62;2.97;2.07;;;26.10;21.00;;;;;;2244744;61;20415;-60
2023/05/27 04:55:30;0.00;0.00;0.62;0.00;0.00;0.62;4.50;1.90;;;26.10;21.00;;;;;;2244773;61;20399;-59
2023/05/27 04:58:15;0.00;0.00;0.62;0.00;0.00;0.62;3.10;2.30;;;26.10;21.00;;;;;;2245669;61;20446;-58
2023/05/27 05:01:01;0.00;0.00;0.62;0.00;0.00;0.62;3.70;2.10;;;26.10;21.00;;;;;;2249725;61;20375;-64
2023/05/27 05:04:02;0.00;0.00;0.62;0.00;0.00;0.62;3.13;2.20;;;26.10;21.00;;;;;;2253533;61;20369;-60
2023/05/27 05:06:47;0.00;0.00;0.62;0.00;0.00;0.62;5.43;2.40;;;26.10;21.00;;;;;;2253530;61;20941;-59
2023/05/27 05:09:32;0.00;0.00;0.62;0.00;0.00;0.62;3.80;2.60;;;26.10;21.00;;;;;;2255242;61;20386;-58
2023/05/27 05:12:25;0.00;0.00;0.62;0.00;0.00;0.62;4.30;2.50;;;26.10;21.00;;;;;;2253471;61;20381;-55
2023/05/27 05:15:11;0.00;0.00;0.62;0.00;0.00;0.62;3.60;2.10;;;26.10;21.00;;;;;;2249386;61;20411;-55
2023/05/27 05:17:57;0.00;0.00;0.62;0.00;0.00;0.62;3.60;2.40;;;26.10;21.10;;;;;;2249036;61;20501;-58
2023/05/27 05:20:42;0.00;0.00;0.62;0.00;0.00;0.62;2.80;2.10;;;26.10;21.10;;;;;;2249263;61;20922;-61
2023/05/27 05:23:31;0.00;0.00;0.62;0.00;0.00;0.62;4.37;2.07;;;26.10;21.10;;;;;;2250479;61;20768;-61
2023/05/27 05:26:16;0.00;0.00;0.62;0.00;0.00;0.62;4.73;2.30;;;26.10;21.10;;;;;;2253435;61;21061;-63
2023/05/27 05:29:03;0.00;0.00;0.62;0.00;0.00;0.62;4.17;2.10;;;26.10;21.10;;;;;;2253183;61;20388;-61
2023/05/27 05:31:48;0.00;0.00;0.62;0.00;0.00;0.62;3.40;2.23;;;26.10;21.10;;;;;;2252441;61;20429;-63
2023/05/27 05:34:37;0.00;0.00;0.62;0.00;0.00;0.62;3.53;2.40;;;26.10;21.10;;;;;;2253348;61;20404;-60
2023/05/27 05:37:23;0.00;0.00;0.62;0.00;0.00;0.62;7.30;2.40;;;26.10;21.20;;;;;;2253051;61;20378;-60
2023/05/27 05:40:11;0.00;0.00;0.62;0.00;0.00;0.62;4.97;2.80;;;26.10;21.20;;;;;;2252560;61;20361;-61
2023/05/27 05:43:02;0.00;0.00;0.62;0.00;0.00;0.62;3.20;2.30;;;26.10;21.20;;;;;;2253668;61;20382;-64
2023/05/27 05:45:47;0.00;0.00;0.62;0.00;0.00;0.62;3.63;2.10;;;26.10;21.20;;;;;;2251856;61;20432;-62
2023/05/27 05:48:32;0.00;0.00;0.62;0.00;0.00;0.62;5.47;2.27;;;26.10;21.20;;;;;;2253632;61;20467;-60
2023/05/27 05:51:19;0.00;0.00;0.62;0.00;0.00;0.62;3.30;2.00;;;26.10;21.20;;;;;;2253341;61;20366;-60
2023/05/27 05:54:09;0.00;0.00;0.62;0.00;0.00;0.62;3.93;1.97;;;26.10;21.20;;;;;;2252348;61;20397;-59
2023/05/27 05:57:01;0.00;0.00;0.62;0.00;0.00;0.62;4.23;2.03;;;26.10;21.20;;;;;;2250717;61;20479;-63
2023/05/27 05:59:45;0.00;0.00;0.62;0.00;0.00;0.62;3.30;2.17;;;26.10;21.70;;;;;;2255869;61;20365;-60
2023/05/27 06:02:31;0.00;0.00;0.62;0.00;0.00;0.62;2.57;1.77;;;26.10;21.20;;;;;;2249145;61;20377;-57
2023/05/27 06:05:16;0.00;0.00;0.62;0.00;0.00;0.62;3.57;2.50;;;26.10;21.30;;;;;;2249243;61;20478;-59
2023/05/27 06:08:03;0.00;0.00;0.62;0.00;0.00;0.62;3.90;2.53;;;26.10;21.30;;;;;;2248280;61;20401;-58
2023/05/27 06:10:47;0.00;0.00;0.62;0.00;0.00;0.62;3.60;2.17;;;26.10;21.30;;;;;;2248965;61;20410;-60
2023/05/27 06:13:32;0.00;0.00;0.62;0.00;0.00;0.62;4.00;2.50;;;26.10;21.30;;;;;;2249639;61;20881;-64
2023/05/27 06:16:18;0.00;0.00;0.62;0.00;0.00;0.62;3.47;2.07;;;26.10;21.30;;;;;;2252302;61;20390;-60
2023/05/27 06:19:03;0.00;0.00;0.62;0.00;0.00;0.62;2.87;2.03;;;26.10;21.30;;;;;;2253099;61;20354;-61
2023/05/27 06:21:48;0.00;0.00;0.62;0.00;0.00;0.62;2.93;1.97;;;26.10;21.30;;;;;;2252832;61;20409;-61
2023/05/27 06:24:52;0.00;0.00;0.62;0.00;0.00;0.62;3.40;2.03;;;26.10;21.30;;;;;;2481955;53;20363;-59
2023/05/27 06:27:45;0.00;0.00;0.62;0.00;0.00;0.62;4.30;2.70;;;26.10;21.30;;;;;;2245464;61;20364;-59
2023/05/27 06:30:31;0.00;0.00;0.62;0.00;0.00;0.62;4.13;2.70;;;26.10;21.30;;;;;;2243699;61;20363;-59
2023/05/27 06:33:16;0.00;0.00;0.62;0.00;0.00;0.62;3.90;2.20;;;26.10;21.30;;;;;;2245307;61;20368;-59
2023/05/27 06:36:01;0.00;0.00;0.62;0.00;0.00;0.62;3.80;2.43;;;26.10;21.40;;;;;;2245159;61;20415;-58
2023/05/27 06:38:46;0.00;0.00;0.62;0.00;0.00;0.62;5.33;2.47;;;26.10;21.40;;;;;;2244443;61;20368;-63
2023/05/27 06:41:32;0.00;0.00;0.62;0.00;0.00;0.62;4.03;2.40;;;26.10;21.40;;;;;;2245302;61;20371;-59
2023/05/27 06:44:36;0.00;0.00;0.62;0.00;0.00;0.62;4.03;2.43;;;26.10;21.40;;;;;;2247771;61;20399;-65
2023/05/27 06:47:29;0.00;0.00;0.62;0.00;0.00;0.62;3.47;2.10;;;26.10;21.40;;;;;;2245367;61;20432;-60
2023/05/27 06:50:14;0.00;0.00;0.62;0.00;0.00;0.62;3.00;2.30;;;26.10;21.40;;;;;;2245146;61;20389;-62
2023/05/27 06:52:59;0.00;0.00;0.62;0.00;0.00;0.62;4.53;2.40;;;26.10;21.40;;;;;;2244103;61;20884;-61
2023/05/27 06:55:49;0.00;0.00;0.62;0.00;0.00;0.62;3.57;2.40;;;26.10;21.40;;;;;;2242730;61;20394;-61
2023/05/27 06:58:53;0.00;0.00;0.62;0.00;0.00;0.62;3.03;2.20;;;26.10;21.50;;;;;;2247561;61;20363;-62
2023/05/27 07:01:39;0.00;0.00;0.62;0.00;0.00;0.62;3.70;2.27;;;26.10;21.40;;;;;;2249082;61;20373;-63
2023/05/27 07:04:27;0.00;0.00;0.62;0.00;0.00;0.62;4.03;2.30;;;26.10;21.40;;;;;;2253201;61;20358;-61
2023/05/27 07:07:15;0.00;0.00;0.62;0.00;0.00;0.62;6.53;2.60;;;26.10;21.40;;;;;;2251659;61;20381;-59
2023/05/27 07:10:00;0.00;0.00;0.62;0.00;0.00;0.62;3.83;2.60;;;26.10;21.50;;;;;;2252909;61;20405;-61
2023/05/27 07:12:45;0.00;0.00;0.62;0.00;0.00;0.62;2.97;2.10;;;26.10;21.50;;;;;;2253226;61;20629;-60
2023/05/27 07:15:46;0.00;0.00;0.62;0.00;0.00;0.62;3.77;2.30;;;26.20;21.50;;;;;;2477768;53;20423;-59
2023/05/27 07:18:31;0.00;0.00;0.62;0.00;0.00;0.62;4.10;2.80;;;26.20;21.50;;;;;;2245160;61;20454;-58
2023/05/27 07:21:18;0.00;0.00;0.62;0.00;0.00;0.62;4.60;2.60;;;26.10;21.50;;;;;;2244418;61;20407;-60
2023/05/27 07:24:03;0.00;0.00;0.62;0.00;0.00;0.62;3.70;2.43;;;26.10;21.50;;;;;;2251957;61;20898;-56
2023/05/27 07:26:51;0.00;0.00;0.62;0.00;0.00;0.62;3.50;2.37;;;26.20;21.50;;;;;;2257053;61;20389;-62
2023/05/27 07:29:37;0.00;0.00;0.62;0.00;0.00;0.62;4.17;2.53;;;26.10;21.50;;;;;;2252318;61;20365;-62
2023/05/27 07:32:32;0.00;0.00;0.62;0.00;0.00;0.62;5.00;2.80;;;26.20;21.60;;;;;;2257063;61;20425;-61
2023/05/27 07:35:17;0.00;0.00;0.62;0.00;0.00;0.62;6.23;3.10;;;26.20;21.50;;;;;;2253354;61;20443;-60
2023/05/27 07:38:02;0.00;0.00;0.62;0.00;0.00;0.62;4.10;2.40;;;26.20;21.50;;;;;;2256388;61;20393;-62
2023/05/27 07:40:47;0.00;0.00;0.62;0.00;0.00;0.62;3.27;2.67;;;26.20;21.60;;;;;;2256914;61;20504;-61
2023/05/27 07:43:32;0.00;0.00;0.62;0.00;0.00;0.62;4.70;2.83;;;26.20;21.60;;;;;;2252980;61;20361;-57
2023/05/27 07:46:16;0.00;0.00;0.62;0.00;0.00;0.62;3.13;2.50;;;26.20;21.50;;;;;;2253403;61;20477;-62
2023/05/27 07:49:02;0.00;0.00;0.62;0.00;0.00;0.62;5.03;2.50;;;26.20;21.60;;;;;;2256727;61;20417;-62
2023/05/27 07:51:48;0.00;0.00;0.62;0.00;0.00;0.62;4.00;2.77;;;26.20;21.60;;;;;;2252239;61;20366;-59
2023/05/27 07:54:32;0.00;0.00;0.62;0.00;0.00;0.62;3.70;2.47;;;26.20;21.60;;;;;;2256766;61;20401;-58
2023/05/27 07:57:17;0.00;0.00;0.62;0.00;0.00;0.62;3.93;2.87;;;26.20;21.60;;;;;;2253543;61;20365;-63
2023/05/27 08:00:04;0.00;0.00;0.62;0.00;0.00;0.62;4.17;2.97;;;26.20;21.50;;;;;;2252613;61;20358;-63
2023/05/27 08:03:09;0.00;0.00;0.62;0.00;0.00;0.62;4.70;2.70;;;26.20;21.60;;;;;;2248921;61;20375;-62
2023/05/27 08:06:14;0.00;0.00;0.62;0.00;0.00;0.62;3.80;2.73;;;26.20;21.60;;;;;;2247400;61;20430;-65
2023/05/27 08:09:10;0.00;0.00;0.62;0.00;0.00;0.62;4.30;2.80;;;26.20;21.60;;;;;;2243223;61;20885;-60
2023/05/27 08:12:13;0.00;0.00;0.62;0.00;0.00;0.62;3.33;2.40;;;26.20;21.60;;;;;;2248649;61;20375;-60
2023/05/27 08:14:58;0.00;0.00;0.62;0.00;0.00;0.62;5.00;2.97;;;26.20;21.60;;;;;;2254172;61;20374;-59
2023/05/27 08:17:56;0.00;0.00;0.62;0.00;0.00;0.62;4.77;2.60;;;26.20;21.60;;;;;;2253759;61;20365;-58
2023/05/27 08:20:59;0.00;0.00;0.62;0.00;0.00;0.62;5.20;2.83;;;26.20;21.60;;;;;;2255340;61;20890;-59
2023/05/27 08:23:57;0.00;0.00;0.62;0.00;0.00;0.62;4.33;2.70;;;26.20;21.60;;;;;;2250471;61;20366;-60
2023/05/27 08:27:02;0.00;0.00;0.62;0.00;0.00;0.62;5.03;2.57;;;26.20;21.60;;;;;;2252549;61;20402;-57
2023/05/27 08:29:57;0.00;0.00;0.62;0.00;0.00;0.62;4.53;3.00;;;26.20;21.60;;;;;;2251516;61;20398;-59
2023/05/27 08:32:51;0.00;0.00;0.62;0.00;0.00;0.62;4.53;2.63;;;26.20;21.60;;;;;;2249734;61;20398;-61
2023/05/27 08:35:36;0.00;0.00;0.62;0.00;0.00;0.62;4.80;3.50;;;26.20;21.60;;;;;;2248942;61;20391;-61
2023/05/27 08:38:22;0.00;0.00;0.62;0.00;0.00;0.62;3.90;3.07;;;26.30;21.70;;;;;;2249821;61;20805;-57
2023/05/27 08:41:10;0.00;0.00;0.62;0.00;0.00;0.62;5.67;3.60;;;26.20;21.60;;;;;;2249473;61;20414;-58
2023/05/27 08:43:56;0.00;0.00;0.62;0.00;0.00;0.62;6.07;3.93;;;26.30;21.70;;;;;;2248343;61;20942;-59
2023/05/27 08:46:41;0.00;0.00;0.62;0.00;0.00;0.62;5.00;2.73;;;26.30;21.70;;;;;;2249402;61;20410;-62
2023/05/27 08:49:26;0.00;0.00;0.62;0.00;0.00;0.62;3.90;3.07;;;26.20;21.60;;;;;;2248915;61;20782;-60
2023/05/27 08:52:14;0.00;0.00;0.62;0.00;0.00;0.62;4.33;2.70;;;26.20;21.60;;;;;;2252079;61;20417;-60
2023/05/27 08:55:03;0.00;0.00;0.62;0.00;0.00;0.62;4.77;2.93;;;26.20;21.60;;;;;;2249708;61;20364;-60
2023/05/27 08:57:54;0.00;0.00;0.62;0.00;0.00;0.62;4.17;2.83;;;26.20;21.60;;;;;;2249034;61;20363;-62
2023/05/27 09:00:39;0.00;0.00;0.62;0.00;0.00;0.62;4.03;2.50;;;26.30;21.70;;;;;;2249620;61;20367;-61
2023/05/27 09:03:34;0.00;0.00;0.62;0.00;0.00;0.62;3.80;2.63;;;26.30;21.70;;;;;;2249620;61;20370;-61
2023/05/27 09:06:20;0.00;0.00;0.62;0.00;0.00;0.62;4.27;3.20;;;26.30;21.70;;;;;;2248406;61;20451;-58
2023/05/27 09:09:09;0.00;0.00;0.62;0.00;0.00;0.62;4.70;3.43;;;26.30;21.70;;;;;;2252298;61;20362;-60
2023/05/27 09:11:59;0.00;0.00;0.62;0.00;0.00;0.62;4.00;2.93;;;26.30;21.70;;;;;;2252345;61;20542;-61
2023/05/27 09:14:48;0.00;0.00;0.62;0.00;0.00;0.62;3.87;2.77;;;26.30;21.70;;;;;;2251620;61;20419;-57
2023/05/27 09:17:39;0.00;0.00;0.62;0.00;0.00;0.62;3.30;2.23;;;26.30;21.70;;;;;;2253005;61;20375;-59
2023/05/27 09:20:25;0.00;0.00;0.62;0.00;0.00;0.62;5.37;3.10;;;26.30;21.70;;;;;;2251080;61;20363;-62
2023/05/27 09:23:11;0.00;0.00;0.62;0.00;0.00;0.62;3.60;2.60;;;26.30;21.70;;;;;;2254262;61;20509;-59
2023/05/27 09:25:59;0.00;0.00;0.62;0.00;0.00;0.62;3.60;2.30;;;26.30;21.70;;;;;;2256624;61;20961;-55
2023/05/27 09:28:45;0.00;0.00;0.62;0.00;0.00;0.62;4.27;2.90;;;26.30;21.70;;;;;;2255753;61;20369;-62
2023/05/27 09:31:31;0.00;0.00;0.62;0.00;0.00;0.62;3.93;2.30;;;26.30;21.70;;;;;;2256758;61;20382;-61
2023/05/27 09:34:17;0.00;0.00;0.62;0.00;0.00;0.62;3.30;2.50;;;26.30;21.70;;;;;;2252716;61;20949;-60
2023/05/27 09:37:02;0.00;0.00;0.62;0.00;0.00;0.62;4.00;2.43;;;26.30;21.70;;;;;;2256025;61;20922;-58
2023/05/27 09:39:48;0.00;0.00;0.62;0.00;0.00;0.62;5.40;3.37;;;26.30;21.70;;;;;;2256820;61;20493;-58
2023/05/27 09:42:41;0.00;0.00;0.62;0.00;0.00;0.62;3.37;2.60;;;26.30;21.70;;;;;;2255270;61;20426;-60
2023/05/27 09:45:28;0.00;0.00;0.62;0.00;0.00;0.62;4.50;2.83;;;26.30;21.70;;;;;;2256129;61;20433;-57
2023/05/27 09:48:18;0.00;0.00;0.62;0.00;0.00;0.62;3.00;2.57;;;26.30;21.70;;;;;;2256545;61;20902;-59
2023/05/27 09:51:03;0.00;0.00;0.62;0.00;0.00;0.62;4.73;2.90;;;26.30;21.70;;;;;;2255331;61;20873;-60
2023/05/27 09:53:51;0.00;0.00;0.62;0.00;0.00;0.62;2.60;2.20;;;26.30;21.70;;;;;;2256622;61;20906;-61
2023/05/27 09:56:36;0.00;0.00;0.62;0.00;0.00;0.62;4.00;2.70;;;26.30;21.70;;;;;;2256037;61;20393;-59
2023/05/27 09:59:22;0.00;0.00;0.62;0.00;0.00;0.62;4.00;2.60;;;26.30;21.70;;;;;;2255630;61;20370;-58
2023/05/27 10:02:07;0.00;0.00;0.62;0.00;0.00;0.62;3.37;2.13;;;26.30;21.70;;;;;;2253807;61;20820;-62
2023/05/27 10:04:57;0.00;0.00;0.62;0.00;0.00;0.62;3.30;2.53;;;26.30;21.80;;;;;;2251286;61;20445;-58
2023/05/27 10:07:44;0.00;0.00;0.62;0.00;0.00;0.62;3.47;2.40;;;26.30;21.70;;;;;;2252761;61;20363;-60
2023/05/27 10:10:29;0.00;0.00;0.62;0.00;0.00;0.62;4.70;2.60;;;26.30;21.80;;;;;;2252227;61;20363;-60
2023/05/27 10:13:16;0.00;0.00;0.62;0.00;0.00;0.62;3.93;2.83;;;26.30;21.80;;;;;;2251531;61;20911;-59
2023/05/27 10:16:01;0.00;0.00;0.62;0.00;0.00;0.62;3.13;2.50;;;26.30;21.80;;;;;;2256194;61;20436;-59
2023/05/27 10:18:52;0.00;0.00;0.62;0.00;0.00;0.62;3.83;2.43;;;26.40;22.40;;;;;;2256101;61;20370;-62
2023/05/27 10:21:45;0.00;0.00;0.62;0.00;0.00;0.62;2.60;1.93;;;26.40;21.80;;;;;;2255985;61;20374;-67
2023/05/27 10:24:33;0.00;0.00;0.62;0.00;0.00;0.62;4.53;2.30;;;26.40;21.90;;;;;;2252819;61;20770;-60
2023/05/27 10:30:14;0.00;0.00;0.62;0.00;0.00;0.62;3.70;2.53;;;26.40;21.90;;;;;;2257835;61;20378;-65
2023/05/27 10:32:59;0.00;0.00;0.62;0.00;0.00;0.62;2.93;2.20;;;26.40;21.90;;;;;;2256180;61;20366;-60
2023/05/27 10:35:49;0.00;0.00;0.62;0.00;0.00;0.62;4.03;2.43;;;26.40;21.90;;;;;;2255866;61;20386;-62
2023/05/27 10:38:36;0.00;0.00;0.62;0.00;0.00;0.62;3.70;2.30;;;26.40;21.90;;;;;;2256447;61;20505;-59
2023/05/27 10:41:22;0.00;0.00;0.62;0.00;0.00;0.62;3.63;2.10;;;26.40;21.90;;;;;;2255847;61;21111;-60
2023/05/27 10:44:07;0.00;0.00;0.62;0.00;0.00;0.62;3.20;2.37;;;26.40;21.90;;;;;;2256386;61;20405;-66
2023/05/27 10:47:01;0.00;0.00;0.62;0.00;0.00;0.62;3.13;2.40;;;26.50;21.90;;;;;;2256210;61;20381;-62
2023/05/27 10:49:47;0.00;0.00;0.62;0.00;0.00;0.62;2.90;2.10;;;26.40;21.90;;;;;;2255083;61;20925;-59
2023/05/27 10:52:36;0.00;0.00;0.62;0.00;0.00;0.62;3.40;2.30;;;26.50;21.90;;;;;;2256381;61;20909;-59
2023/05/27 10:55:23;0.00;0.00;0.62;0.00;0.00;0.62;3.20;2.50;;;26.50;21.90;;;;;;2255199;61;20381;-60
2023/05/27 10:58:08;0.00;0.00;0.62;0.00;0.00;0.62;2.20;1.77;;;26.50;21.90;;;;;;2255463;61;20369;-60
2023/05/27 11:00:56;0.00;0.00;0.62;0.00;0.00;0.62;3.00;2.00;;;26.50;21.90;;;;;;2255913;61;20405;-59
2023/05/27 11:03:45;0.00;0.00;0.62;0.00;0.00;0.62;3.00;1.93;;;26.50;21.90;;;;;;2255450;61;20378;-63